Time;durP1;ratioP1;P1;durP2;ratioP2;P2;SDS_P1;SDS_P2;PMS_P1;PMS_P2;Temp;Humidity;BMP_temperature;BMP_pressure;BME280_temperature;BME280_humidity;BME280_pressure;Samples;Min_cycle;Max_cycle;Signal;HPM_P1;HPM_P2
2022/06/05 00:01:43;;;;;;;19.70;17.80;;;16.70;1.00;;;;;;5016726;28;20464;-62
2022/06/05 00:04:22;;;;;;;25.80;22.83;;;16.70;1.00;;;;;;5018873;28;20549;-62
2022/06/05 00:06:56;;;;;;;18.00;12.93;;;16.70;1.00;;;;;;5024438;28;20799;-62
2022/06/05 00:09:34;;;;;;;10.43;9.63;;;16.60;1.00;;;;;;5038524;28;20566;-62
2022/06/05 00:12:06;;;;;;;17.17;15.57;;;16.50;1.00;;;;;;5024088;28;20437;-62
2022/06/05 00:14:33;;;;;;;16.17;14.73;;;16.40;1.00;;;;;;5031497;28;20435;-62
2022/06/05 00:17:01;;;;;;;12.30;11.30;;;16.40;1.00;;;;;;5018488;28;20897;-62
2022/06/05 00:19:31;;;;;;;11.07;10.17;;;16.40;1.00;;;;;;5021060;28;20470;-62
2022/06/05 00:21:58;;;;;;;10.53;9.57;;;16.40;1.00;;;;;;5020632;28;20445;-62
2022/06/05 00:24:27;;;;;;;9.47;8.77;;;16.30;1.00;;;;;;5025537;28;20529;-62
2022/06/05 00:27:01;;;;;;;9.60;8.80;;;16.30;1.00;;;;;;5018291;28;20464;-62
2022/06/05 00:29:44;;;;;;;9.17;8.30;;;16.20;1.00;;;;;;5034765;28;20498;-62
2022/06/05 00:32:19;;;;;;;9.47;8.70;;;16.20;1.00;;;;;;5026438;28;20469;-62
2022/06/05 00:34:46;;;;;;;9.60;8.87;;;16.20;1.00;;;;;;5037733;28;20490;-62
2022/06/05 00:37:27;;;;;;;9.13;8.37;;;16.20;1.00;;;;;;5027799;28;20554;-62
2022/06/05 00:40:04;;;;;;;10.40;9.57;;;16.30;1.00;;;;;;5038106;28;20909;-62
2022/06/05 00:42:34;;;;;;;10.20;9.43;;;16.30;1.00;;;;;;5023609;28;20471;-62
2022/06/05 00:45:15;;;;;;;10.63;9.63;;;16.20;1.00;;;;;;5021680;28;20509;-62
2022/06/05 00:47:45;;;;;;;10.87;9.97;;;16.20;1.00;;;;;;5017320;28;20486;-62
2022/06/05 00:50:16;;;;;;;10.53;9.63;;;16.10;1.00;;;;;;5025621;28;20472;-62
2022/06/05 00:52:47;;;;;;;10.33;9.40;;;16.10;1.00;;;;;;5018051;28;20913;-62
2022/06/05 00:55:15;;;;;;;10.73;9.60;;;16.10;1.00;;;;;;5035943;28;20474;-62
2022/06/05 00:57:42;;;;;;;9.70;8.90;;;16.00;1.00;;;;;;5026205;28;20467;-62
2022/06/05 01:00:15;;;;;;;10.60;9.70;;;16.00;1.00;;;;;;4998419;28;20460;-62
2022/06/05 01:02:46;;;;;;;9.13;8.43;;;15.90;1.00;;;;;;5028312;28;20449;-62
2022/06/05 01:05:19;;;;;;;9.27;8.57;;;15.90;1.00;;;;;;5024966;28;20530;-62
2022/06/05 01:07:49;;;;;;;9.20;8.40;;;15.80;1.00;;;;;;5017120;28;20463;-62
2022/06/05 01:10:18;;;;;;;9.83;9.00;;;15.80;1.00;;;;;;5034609;28;20462;-62
2022/06/05 01:12:55;;;;;;;9.00;8.20;;;15.80;1.00;;;;;;5025049;28;20474;-62
2022/06/05 01:15:36;;;;;;;8.67;7.97;;;15.80;1.00;;;;;;5037504;28;20467;-62
2022/06/05 01:18:25;;;;;;;9.93;9.13;;;15.80;1.00;;;;;;5017076;28;20468;-62
2022/06/05 01:21:04;;;;;;;9.83;8.93;;;15.80;1.00;;;;;;5017357;28;20467;-62
2022/06/05 01:23:45;;;;;;;9.30;8.50;;;15.80;1.00;;;;;;5016852;28;20506;-62
2022/06/05 01:26:28;;;;;;;8.93;8.23;;;15.80;1.00;;;;;;5034159;28;20786;-62
2022/06/05 01:29:03;;;;;;;9.17;8.43;;;15.90;1.00;;;;;;5022869;28;20801;-62
2022/06/05 01:31:36;;;;;;;10.30;8.27;;;15.90;1.00;;;;;;5037317;28;20804;-61
2022/06/05 01:34:19;;;;;;;9.07;8.17;;;15.90;1.00;;;;;;5022526;28;20496;-62
2022/06/05 01:36:54;;;;;;;9.07;8.43;;;15.90;1.00;;;;;;5032627;28;20463;-62
2022/06/05 01:39:26;;;;;;;10.17;9.27;;;15.90;1.00;;;;;;5017649;28;20530;-63
2022/06/05 01:41:57;;;;;;;8.90;8.20;;;15.90;1.00;;;;;;5016898;28;20463;-62
2022/06/05 01:44:35;;;;;;;9.27;8.40;;;15.90;1.00;;;;;;5020856;28;20510;-62
2022/06/05 01:47:06;;;;;;;11.73;10.77;;;15.80;1.00;;;;;;5017634;28;20475;-62
2022/06/05 01:49:40;;;;;;;9.07;8.47;;;15.80;1.00;;;;;;5021145;28;20464;-62
2022/06/05 01:52:13;;;;;;;9.60;8.87;;;15.80;1.00;;;;;;5016937;28;20462;-62
2022/06/05 01:54:47;;;;;;;9.77;8.97;;;15.70;1.00;;;;;;5016899;28;20879;-62
2022/06/05 01:57:20;;;;;;;8.93;8.20;;;15.60;1.00;;;;;;5017202;28;20463;-62
2022/06/05 01:59:51;;;;;;;9.50;8.80;;;15.70;1.00;;;;;;5018307;28;20446;-62
2022/06/05 02:02:23;;;;;;;9.60;8.80;;;15.80;1.00;;;;;;5021126;28;20459;-61
2022/06/05 02:04:57;;;;;;;8.60;7.97;;;15.90;1.00;;;;;;5029988;28;20488;-63
2022/06/05 02:07:30;;;;;;;8.83;8.20;;;16.00;1.00;;;;;;5028164;28;20735;-62
2022/06/05 02:10:06;;;;;;;9.60;8.80;;;16.10;1.00;;;;;;5024422;28;20465;-63
2022/06/05 02:12:35;;;;;;;8.10;7.50;;;16.10;1.00;;;;;;5034864;28;20462;-62
2022/06/05 02:15:03;;;;;;;9.27;8.47;;;16.20;1.00;;;;;;5033179;28;20468;-63
2022/06/05 02:17:32;;;;;;;9.50;8.60;;;16.20;1.00;;;;;;5017050;28;20464;-63
2022/06/05 02:20:00;;;;;;;9.97;7.90;;;16.30;1.00;;;;;;5016400;28;20542;-63
2022/06/05 02:22:31;;;;;;;8.40;7.70;;;16.50;1.00;;;;;;5016977;28;20439;-63
2022/06/05 02:24:58;;;;;;;7.50;7.00;;;16.50;1.00;;;;;;5030777;28;20495;-63
2022/06/05 02:27:27;;;;;;;9.43;8.63;;;16.60;1.00;;;;;;5036851;28;20463;-63
2022/06/05 02:29:57;;;;;;;8.07;7.50;;;16.70;1.00;;;;;;5031464;28;20522;-62
2022/06/05 02:32:58;;;;;;;9.00;8.30;;;16.70;1.00;;;;;;5028884;28;20475;-62
2022/06/05 02:35:36;;;;;;;8.13;7.53;;;16.70;1.00;;;;;;5031608;28;20459;-62
2022/06/05 02:38:19;;;;;;;8.90;8.10;;;16.80;1.00;;;;;;5036411;28;20820;-62
2022/06/05 02:40:59;;;;;;;8.33;7.27;;;16.80;1.00;;;;;;5027548;28;20460;-63
2022/06/05 02:43:34;;;;;;;8.27;7.57;;;16.80;1.00;;;;;;5018742;28;20499;-62
2022/06/05 02:46:11;;;;;;;9.30;8.50;;;16.80;1.00;;;;;;5016007;28;20523;-62
2022/06/05 02:48:42;;;;;;;8.10;7.50;;;16.70;1.00;;;;;;5016392;28;20460;-62
2022/06/05 02:51:15;;;;;;;8.37;7.67;;;16.70;1.00;;;;;;5017389;28;20475;-62
2022/06/05 02:53:51;;;;;;;7.97;7.37;;;16.70;1.00;;;;;;5038175;28;21540;-62
2022/06/05 02:56:18;;;;;;;8.53;7.93;;;16.60;1.00;;;;;;5030588;28;20834;-62
2022/06/05 02:58:49;;;;;;;8.83;8.13;;;16.60;1.00;;;;;;5039912;28;20924;-62
2022/06/05 03:04:03;;;;;;;9.60;8.80;;;16.50;1.00;;;;;;5039210;28;20497;-62
2022/06/05 03:06:33;;;;;;;9.10;8.40;;;16.50;1.00;;;;;;5026567;28;20563;-62
2022/06/05 03:09:00;;;;;;;8.77;8.17;;;16.50;1.00;;;;;;5019917;28;20498;-62
2022/06/05 03:11:27;;;;;;;9.40;7.83;;;16.50;1.00;;;;;;5019378;28;20467;-62
2022/06/05 03:13:57;;;;;;;11.20;8.47;;;16.40;1.00;;;;;;5028751;28;20912;-62
2022/06/05 03:16:25;;;;;;;8.87;8.17;;;16.50;1.00;;;;;;5031759;28;20464;-62
2022/06/05 03:18:53;;;;;;;8.50;7.80;;;16.50;1.00;;;;;;5035458;28;20437;-62
2022/06/05 03:21:20;;;;;;;8.80;8.17;;;16.50;1.00;;;;;;5026820;28;20468;-62
2022/06/05 03:23:48;;;;;;;8.67;8.03;;;16.50;1.00;;;;;;5019189;28;20492;-62
2022/06/05 03:26:15;;;;;;;8.93;8.33;;;16.40;1.00;;;;;;5018607;28;20464;-62
2022/06/05 03:28:42;;;;;;;10.23;8.53;;;16.40;1.00;;;;;;5018986;28;20471;-62
2022/06/05 03:31:10;;;;;;;9.20;8.40;;;16.30;1.00;;;;;;5020432;28;20468;-63
2022/06/05 03:33:39;;;;;;;10.70;9.90;;;16.30;1.00;;;;;;5019478;28;20582;-62
2022/06/05 03:36:09;;;;;;;8.80;8.10;;;16.20;1.00;;;;;;5032945;28;20590;-62
2022/06/05 03:38:37;;;;;;;9.00;8.17;;;16.20;1.00;;;;;;5020349;28;20550;-62
2022/06/05 03:41:05;;;;;;;8.70;8.10;;;16.10;1.00;;;;;;5002773;28;20479;-62
2022/06/05 03:43:32;;;;;;;9.57;8.77;;;16.20;1.00;;;;;;5024536;28;20470;-62
2022/06/05 03:46:03;;;;;;;10.13;9.10;;;16.10;1.00;;;;;;5038865;28;20471;-62
2022/06/05 03:48:30;;;;;;;8.37;7.87;;;16.10;1.00;;;;;;5035541;28;20900;-62
2022/06/05 03:50:58;;;;;;;8.80;8.10;;;16.10;1.00;;;;;;5039011;28;20826;-62
2022/06/05 03:53:28;;;;;;;8.27;7.63;;;16.10;1.00;;;;;;5035958;28;20841;-62
2022/06/05 03:55:57;;;;;;;9.83;9.03;;;16.10;1.00;;;;;;5038506;28;20958;-63
2022/06/05 03:58:26;;;;;;;9.70;8.90;;;16.10;1.00;;;;;;5029243;28;20897;-62
2022/06/05 04:00:53;;;;;;;10.20;9.30;;;16.10;1.00;;;;;;5018825;28;20472;-62
2022/06/05 04:03:21;;;;;;;9.10;8.30;;;16.10;1.00;;;;;;5018497;28;20470;-62
2022/06/05 04:05:48;;;;;;;8.90;8.20;;;16.10;1.00;;;;;;5033404;28;20553;-62
2022/06/05 04:08:22;;;;;;;10.70;9.43;;;16.10;1.00;;;;;;5033802;28;20836;-62
2022/06/05 04:10:49;;;;;;;8.70;8.07;;;16.10;1.00;;;;;;5038753;28;20463;-62
2022/06/05 04:13:16;;;;;;;9.10;8.40;;;16.10;1.00;;;;;;5027632;28;20471;-62
2022/06/05 04:15:43;;;;;;;11.10;10.10;;;16.10;1.00;;;;;;5018747;28;20815;-62
2022/06/05 04:18:12;;;;;;;9.90;9.10;;;16.10;1.00;;;;;;5017978;28;20472;-62
2022/06/05 04:20:40;;;;;;;8.90;8.00;;;16.10;1.00;;;;;;5029750;28;20829;-62
2022/06/05 04:23:09;;;;;;;9.83;8.93;;;16.10;1.00;;;;;;5032857;28;20460;-62
2022/06/05 04:25:37;;;;;;;9.00;8.40;;;16.10;1.00;;;;;;4998646;28;20499;-63
2022/06/05 04:28:07;;;;;;;9.50;8.70;;;16.20;1.00;;;;;;5001408;28;20752;-62
2022/06/05 04:30:41;;;;;;;9.13;8.23;;;16.20;1.00;;;;;;5027824;28;20460;-62
2022/06/05 04:33:09;;;;;;;10.37;9.30;;;16.20;1.00;;;;;;5026565;28;20596;-62
2022/06/05 04:35:38;;;;;;;9.70;8.93;;;16.10;1.00;;;;;;5022826;28;20460;-62
2022/06/05 04:38:06;;;;;;;9.23;8.50;;;16.20;1.00;;;;;;5032065;28;20886;-63
2022/06/05 04:40:33;;;;;;;9.20;8.60;;;16.20;1.00;;;;;;5031803;28;20464;-63
2022/06/05 04:43:01;;;;;;;9.17;8.47;;;16.20;1.00;;;;;;5018447;28;20463;-62
2022/06/05 04:45:28;;;;;;;9.27;8.37;;;16.20;1.00;;;;;;5018866;28;20500;-63
2022/06/05 04:47:55;;;;;;;9.40;8.60;;;16.30;1.00;;;;;;5018158;28;20530;-63
2022/06/05 04:50:22;;;;;;;9.70;9.00;;;16.30;1.00;;;;;;5017412;28;20909;-63
2022/06/05 04:52:49;;;;;;;9.20;8.60;;;16.40;1.00;;;;;;5022725;28;20470;-62
2022/06/05 04:55:16;;;;;;;9.50;8.80;;;16.40;1.00;;;;;;5032995;28;20435;-62
2022/06/05 04:57:44;;;;;;;9.20;8.50;;;16.40;1.00;;;;;;5028407;28;20466;-62
2022/06/05 05:00:14;;;;;;;8.80;8.10;;;16.50;1.00;;;;;;5037419;28;20463;-63
2022/06/05 05:02:43;;;;;;;9.37;8.60;;;16.50;1.00;;;;;;5021059;28;20800;-62
2022/06/05 05:05:11;;;;;;;10.10;9.10;;;16.60;1.00;;;;;;5019514;28;20495;-62
2022/06/05 05:07:38;;;;;;;9.07;8.30;;;16.60;1.00;;;;;;5017650;28;20529;-62
2022/06/05 05:10:06;;;;;;;10.13;9.33;;;16.70;1.00;;;;;;5024842;28;20768;-63
2022/06/05 05:12:35;;;;;;;9.20;8.27;;;16.70;1.00;;;;;;5026169;28;20467;-63
2022/06/05 05:15:03;;;;;;;11.13;9.20;;;16.70;1.00;;;;;;5030823;28;20888;-63
2022/06/05 05:17:31;;;;;;;9.23;8.43;;;16.80;1.00;;;;;;5021752;28;20526;-62
2022/06/05 05:19:58;;;;;;;9.13;8.43;;;16.90;1.00;;;;;;5017297;28;20468;-62
2022/06/05 05:22:27;;;;;;;8.70;8.00;;;16.90;1.00;;;;;;5016838;28;20491;-63
2022/06/05 05:24:54;;;;;;;11.50;10.50;;;17.00;1.00;;;;;;5017220;28;20495;-63
2022/06/05 05:27:22;;;;;;;9.20;8.50;;;17.00;1.00;;;;;;5017746;28;20534;-62
2022/06/05 05:29:51;;;;;;;9.80;9.10;;;17.10;1.00;;;;;;5019818;28;20477;-63
2022/06/05 05:32:17;;;;;;;9.87;8.87;;;17.10;1.00;;;;;;5035807;28;20565;-63
2022/06/05 05:34:46;;;;;;;10.67;9.67;;;17.20;1.00;;;;;;5028271;28;20494;-63
2022/06/05 05:37:16;;;;;;;9.50;8.67;;;17.30;1.00;;;;;;5031577;28;20741;-63
2022/06/05 05:42:30;;;;;;;9.20;8.50;;;17.40;1.00;;;;;;5017231;28;20440;-63
2022/06/05 05:45:05;;;;;;;9.10;8.50;;;17.50;1.00;;;;;;5015143;28;20933;-63
2022/06/05 05:47:36;;;;;;;8.97;8.20;;;17.50;99.90;;;;;;5017594;28;20466;-63
2022/06/05 05:50:10;;;;;;;8.67;7.97;;;17.60;1.00;;;;;;5015137;28;20460;-62
2022/06/05 05:52:38;;;;;;;8.97;8.27;;;17.70;99.90;;;;;;5015434;28;20459;-63
2022/06/05 05:55:07;;;;;;;8.37;7.77;;;17.70;1.00;;;;;;5015735;28;20904;-62
2022/06/05 05:57:34;;;;;;;8.37;7.60;;;17.80;1.00;;;;;;5014823;28;20460;-63
2022/06/05 06:00:01;;;;;;;9.17;8.40;;;18.00;99.90;;;;;;5015728;28;20463;-62
2022/06/05 06:02:33;;;;;;;10.27;9.47;;;18.10;99.90;;;;;;5016486;28;20463;-63
2022/06/05 06:05:00;;;;;;;9.10;8.40;;;18.20;99.90;;;;;;5023944;28;20494;-62
2022/06/05 06:07:29;;;;;;;9.40;8.50;;;18.40;99.90;;;;;;5017376;28;20619;-63
2022/06/05 06:09:56;;;;;;;9.50;8.80;;;18.50;99.90;;;;;;5011099;28;20769;-63
2022/06/05 06:12:24;;;;;;;9.10;8.50;;;18.60;99.90;;;;;;5012761;28;20459;-63
2022/06/05 06:14:51;;;;;;;8.70;8.10;;;18.70;99.90;;;;;;5013123;28;20460;-62
2022/06/05 06:17:21;;;;;;;9.20;8.60;;;18.90;99.90;;;;;;5014734;28;20475;-63
2022/06/05 06:19:51;;;;;;;9.40;8.67;;;19.00;99.90;;;;;;5010619;28;20529;-63
2022/06/05 06:22:18;;;;;;;8.30;7.70;;;19.10;99.90;;;;;;5012909;28;20467;-63
2022/06/05 06:24:47;;;;;;;8.27;7.67;;;19.20;99.90;;;;;;5009361;28;20503;-63
2022/06/05 06:27:14;;;;;;;8.50;7.90;;;19.30;99.90;;;;;;5017887;28;20550;-63
2022/06/05 06:29:41;;;;;;;8.67;7.97;;;19.50;99.90;;;;;;5016997;28;20464;-63
2022/06/05 06:32:09;;;;;;;8.60;8.00;;;19.60;99.90;;;;;;5019364;28;20464;-63
2022/06/05 06:34:36;;;;;;;9.33;8.63;;;19.70;99.90;;;;;;5015548;28;20479;-62
2022/06/05 06:37:04;;;;;;;9.57;8.77;;;19.80;99.90;;;;;;5018301;28;21005;-63
2022/06/05 06:39:31;;;;;;;8.70;7.90;;;20.00;99.90;;;;;;5008571;28;20457;-62
2022/06/05 06:41:59;;;;;;;9.30;8.70;;;20.00;99.90;;;;;;5019408;28;20472;-64
2022/06/05 06:44:26;;;;;;;9.50;8.60;;;20.00;99.90;;;;;;5022454;28;20459;-63
2022/06/05 06:46:56;;;;;;;9.37;8.67;;;20.10;99.90;;;;;;5031924;28;20462;-63
2022/06/05 06:49:23;;;;;;;10.23;9.43;;;20.10;99.90;;;;;;5039473;28;20463;-62
2022/06/05 06:51:52;;;;;;;9.83;8.93;;;20.00;99.90;;;;;;5032589;28;20896;-63
2022/06/05 06:54:19;;;;;;;9.87;9.20;;;20.10;99.90;;;;;;5039258;28;20463;-63
2022/06/05 06:56:47;;;;;;;9.07;8.37;;;20.10;99.90;;;;;;5031305;28;20464;-63
2022/06/05 06:59:16;;;;;;;10.30;9.60;;;20.10;99.90;;;;;;5021204;28;20471;-63
2022/06/05 07:01:43;;;;;;;9.00;8.40;;;20.20;99.90;;;;;;5026804;28;20513;-62
2022/06/05 07:04:10;;;;;;;7.97;7.17;;;20.10;99.90;;;;;;5028398;28;20931;-63
2022/06/05 07:06:37;;;;;;;9.57;8.60;;;20.20;99.90;;;;;;5036496;28;20495;-62
2022/06/05 07:09:05;;;;;;;9.30;8.37;;;20.20;99.90;;;;;;5035764;28;20466;-62
2022/06/05 07:11:32;;;;;;;8.90;8.30;;;20.30;99.90;;;;;;5034183;28;20494;-62
2022/06/05 07:13:59;;;;;;;9.27;8.57;;;20.30;99.90;;;;;;5038608;28;20471;-63
2022/06/05 07:16:31;;;;;;;9.20;8.53;;;20.30;99.90;;;;;;5038300;28;20463;-62
2022/06/05 07:18:58;;;;;;;8.30;7.80;;;20.40;99.90;;;;;;5020230;28;20571;-62
2022/06/05 07:21:26;;;;;;;9.37;8.67;;;20.50;99.90;;;;;;5031715;28;20758;-62
2022/06/05 07:23:55;;;;;;;9.40;8.70;;;20.50;99.90;;;;;;5018705;28;20960;-63
2022/06/05 07:26:25;;;;;;;9.43;8.80;;;20.60;99.90;;;;;;5018214;28;20526;-62
2022/06/05 07:28:53;;;;;;;8.90;8.30;;;20.60;99.90;;;;;;5013664;28;20472;-62
2022/06/05 07:31:23;;;;;;;9.57;8.87;;;20.70;99.90;;;;;;5014013;28;20461;-63
2022/06/05 07:33:51;;;;;;;9.00;8.10;;;20.80;99.90;;;;;;5016422;28;20574;-62
2022/06/05 07:36:22;;;;;;;9.77;8.97;;;20.90;99.90;;;;;;5013813;28;20460;-63
2022/06/05 07:38:49;;;;;;;8.77;8.17;;;20.90;99.90;;;;;;5016211;28;20542;-63
2022/06/05 07:41:19;;;;;;;8.13;7.53;;;20.90;99.90;;;;;;5014315;28;20889;-62
2022/06/05 07:43:46;;;;;;;9.73;9.00;;;20.90;99.90;;;;;;5015592;28;20534;-62
2022/06/05 07:46:13;;;;;;;8.93;8.20;;;21.00;99.90;;;;;;5016350;28;20498;-62
2022/06/05 07:48:41;;;;;;;9.60;9.00;;;21.10;99.90;;;;;;5015309;28;20475;-63
2022/06/05 07:56:42;;;;;;;8.80;8.10;;;22.00;99.90;;;;;;5015557;28;20490;-63
2022/06/05 07:59:09;;;;;;;8.90;8.30;;;22.30;99.90;;;;;;5015419;28;20474;-64
2022/06/05 08:01:36;;;;;;;9.03;8.33;;;22.50;99.90;;;;;;5013777;28;20769;-63
2022/06/05 08:04:04;;;;;;;8.70;7.93;;;22.60;99.90;;;;;;5017046;28;20481;-64
2022/06/05 08:06:35;;;;;;;9.00;8.40;;;23.00;99.90;;;;;;5015510;28;20495;-62
2022/06/05 08:09:02;;;;;;;8.53;7.90;;;23.10;99.90;;;;;;5037649;28;20467;-64
2022/06/05 08:11:45;;;;;;;8.97;8.47;;;23.00;99.90;;;;;;5024717;28;20455;-64
2022/06/05 08:14:14;;;;;;;9.10;8.40;;;23.10;99.90;;;;;;5020163;28;20861;-64
2022/06/05 08:16:46;;;;;;;8.27;7.73;;;23.30;99.90;;;;;;5030523;28;20512;-63
2022/06/05 08:19:14;;;;;;;8.40;7.80;;;23.60;99.90;;;;;;5035977;28;20467;-64
2022/06/05 08:21:49;;;;;;;8.10;7.50;;;23.90;99.90;;;;;;5016511;28;21825;-64
2022/06/05 08:24:17;;;;;;;8.27;7.70;;;24.40;99.90;;;;;;5014637;28;20468;-63
2022/06/05 08:26:44;;;;;;;8.57;7.97;;;24.50;99.90;;;;;;5015329;28;20948;-62
2022/06/05 08:29:11;;;;;;;9.03;8.40;;;24.40;99.90;;;;;;5015072;28;20708;-62
2022/06/05 08:31:43;;;;;;;8.37;7.80;;;24.10;99.90;;;;;;5015567;28;20886;-61
2022/06/05 08:34:14;;;;;;;8.50;7.50;;;23.70;99.90;;;;;;5014665;28;20488;-60
2022/06/05 08:36:42;;;;;;;8.30;7.57;;;23.40;99.90;;;;;;5024478;28;20467;-60
2022/06/05 08:42:16;;;;;;;8.20;7.60;;;23.30;99.90;;;;;;5024526;28;20510;-60
2022/06/05 08:44:51;;;;;;;8.40;7.80;;;23.10;99.90;;;;;;5021372;28;20470;-61
2022/06/05 08:47:25;;;;;;;7.90;7.40;;;22.80;99.90;;;;;;5023169;28;20517;-61
2022/06/05 08:49:57;;;;;;;8.27;7.57;;;22.70;99.90;;;;;;5037015;28;20470;-60
2022/06/05 08:52:39;;;;;;;8.33;7.80;;;22.80;99.90;;;;;;5013975;28;20535;-60
2022/06/05 08:55:18;;;;;;;8.67;7.97;;;22.80;99.90;;;;;;4998789;28;20468;-61
2022/06/05 08:57:57;;;;;;;7.63;7.13;;;23.00;99.90;;;;;;5016817;28;20909;-60
2022/06/05 09:00:31;;;;;;;8.47;7.90;;;23.00;99.90;;;;;;5025448;28;20813;-61
2022/06/05 09:03:07;;;;;;;7.43;6.93;;;23.00;99.90;;;;;;5036948;28;20467;-60
2022/06/05 09:05:41;;;;;;;8.77;8.17;;;22.90;99.90;;;;;;5036945;28;20921;-63
2022/06/05 09:08:13;;;;;;;8.17;7.37;;;22.80;99.90;;;;;;5019830;28;20866;-63
2022/06/05 09:10:45;;;;;;;8.97;8.37;;;22.70;99.90;;;;;;5032811;28;20491;-62
2022/06/05 09:13:19;;;;;;;8.67;8.00;;;22.40;99.90;;;;;;5026883;28;20502;-62
2022/06/05 09:15:57;;;;;;;8.67;8.07;;;22.20;99.90;;;;;;5021340;28;20449;-62
2022/06/05 09:18:29;;;;;;;9.27;8.67;;;21.90;99.90;;;;;;5017990;28;20961;-62
2022/06/05 09:20:58;;;;;;;9.70;9.00;;;21.80;99.90;;;;;;5015989;28;20741;-61
2022/06/05 09:23:33;;;;;;;8.67;7.93;;;21.80;99.90;;;;;;5015645;28;20755;-62
2022/06/05 09:26:07;;;;;;;9.20;8.50;;;21.80;99.90;;;;;;5011829;28;20964;-62
2022/06/05 09:29:03;;;;;;;9.47;8.60;;;21.70;99.90;;;;;;5013653;28;20888;-61
2022/06/05 09:31:59;;;;;;;10.40;9.50;;;21.20;99.90;;;;;;5012619;28;20456;-62
2022/06/05 09:34:34;;;;;;;10.30;9.47;;;20.90;99.90;;;;;;5016338;28;20487;-63
2022/06/05 09:37:08;;;;;;;11.40;10.50;;;20.80;99.90;;;;;;5016052;28;20451;-62
2022/06/05 09:39:42;;;;;;;11.40;10.50;;;20.80;1.00;;;;;;5014042;28;20960;-62
2022/06/05 09:42:26;;;;;;;11.23;10.43;;;20.70;1.00;;;;;;5016883;28;20935;-59
2022/06/05 09:45:08;;;;;;;11.40;10.60;;;20.40;1.00;;;;;;5013161;28;20452;-57
2022/06/05 09:47:41;;;;;;;13.30;12.10;;;20.20;1.00;;;;;;5014977;28;20506;-64
2022/06/05 09:50:21;;;;;;;13.90;12.30;;;19.70;1.00;;;;;;5017994;28;20558;-64
2022/06/05 09:52:50;;;;;;;14.50;13.07;;;19.40;1.00;;;;;;5016385;28;20904;-62
2022/06/05 09:55:22;;;;;;;13.70;12.57;;;19.30;99.90;;;;;;5017669;28;20456;-64
2022/06/05 10:00:49;;;;;;;13.23;12.23;;;19.20;99.90;;;;;;5018248;28;20744;-63
2022/06/05 10:03:19;;;;;;;13.70;12.60;;;19.20;99.90;;;;;;5022862;28;20461;-62
2022/06/05 10:06:12;;;;;;;13.83;12.83;;;19.20;99.90;;;;;;5015976;28;20519;-65
2022/06/05 10:08:42;;;;;;;14.57;13.57;;;19.30;99.90;;;;;;5019036;28;20459;-64
2022/06/05 10:11:23;;;;;;;15.17;13.87;;;19.60;47.10;;;;;;5022334;28;20488;-65
2022/06/05 10:13:59;;;;;;;13.17;12.10;;;20.10;1.00;;;;;;5017910;28;20546;-65
2022/06/05 10:16:32;;;;;;;13.47;12.40;;;20.50;99.90;;;;;;5009331;28;20515;-65
2022/06/05 10:19:15;;;;;;;12.80;11.87;;;20.80;99.90;;;;;;5021178;28;20776;-64
2022/06/05 10:21:57;;;;;;;12.80;11.80;;;21.00;20.50;;;;;;5021527;28;20526;-63
2022/06/05 10:24:36;;;;;;;12.37;11.47;;;20.90;1.00;;;;;;5018866;28;20464;-63
2022/06/05 10:27:10;;;;;;;12.53;11.53;;;20.90;1.00;;;;;;5021193;28;20487;-64
2022/06/05 10:29:42;;;;;;;12.20;11.40;;;20.60;1.00;;;;;;5016538;28;20470;-63
2022/06/05 10:32:20;;;;;;;11.77;10.67;;;20.50;1.00;;;;;;5019886;28;20464;-63
2022/06/05 10:34:53;;;;;;;12.27;11.37;;;20.40;1.00;;;;;;5022764;28;20486;-63
2022/06/05 10:37:38;;;;;;;13.17;12.17;;;20.20;1.00;;;;;;5039240;28;20880;-61
2022/06/05 10:40:18;;;;;;;13.77;12.73;;;20.00;1.00;;;;;;5037068;28;20929;-62
2022/06/05 10:42:55;;;;;;;12.97;11.93;;;19.90;31.50;;;;;;4999865;28;20424;-63
2022/06/05 10:45:42;;;;;;;12.93;11.97;;;19.60;1.00;;;;;;5009106;28;20884;-62
2022/06/05 10:48:30;;;;;;;12.63;11.83;;;19.40;99.90;;;;;;5028015;28;20445;-63
2022/06/05 10:51:04;;;;;;;12.17;11.37;;;19.70;99.90;;;;;;5030975;28;20811;-60
2022/06/05 10:53:39;;;;;;;12.00;11.07;;;19.90;99.90;;;;;;5033084;28;20458;-61
2022/06/05 10:56:19;;;;;;;11.87;11.07;;;20.10;99.90;;;;;;5026990;28;20466;-61
2022/06/05 10:58:52;;;;;;;12.20;11.17;;;20.00;1.00;;;;;;5000509;28;20735;-61
2022/06/05 11:01:55;;;;;;;13.50;12.30;;;20.00;1.00;;;;;;5009256;28;20464;-62
2022/06/05 11:04:40;;;;;;;11.40;10.50;;;20.20;43.70;;;;;;5019227;28;20466;-62
2022/06/05 11:07:31;;;;;;;12.83;11.90;;;20.10;61.70;;;;;;5035858;28;20487;-61
2022/06/05 11:10:17;;;;;;;12.40;11.20;;;20.20;1.00;;;;;;5016197;28;20526;-63
2022/06/05 11:15:52;;;;;;;11.63;10.73;;;20.30;1.00;;;;;;5039331;28;20451;-61
2022/06/05 11:18:26;;;;;;;12.10;11.17;;;20.40;1.00;;;;;;5029507;28;20468;-62
2022/06/05 11:20:57;;;;;;;11.43;10.60;;;20.30;1.00;;;;;;5029096;28;20803;-61
2022/06/05 11:23:30;;;;;;;12.80;11.90;;;20.40;1.00;;;;;;5034299;28;20474;-61
2022/06/05 11:26:05;;;;;;;12.67;11.67;;;20.60;31.60;;;;;;5039086;28;20470;-62
2022/06/05 11:28:52;;;;;;;12.03;11.23;;;20.60;1.00;;;;;;5028927;28;20566;-61
2022/06/05 11:31:31;;;;;;;14.43;13.43;;;20.50;1.00;;;;;;5016115;28;20456;-62
2022/06/05 11:34:06;;;;;;;14.60;11.90;;;20.50;1.00;;;;;;5013998;28;20480;-62
2022/06/05 11:36:43;;;;;;;12.63;11.70;;;20.50;1.00;;;;;;5016445;28;20812;-62
2022/06/05 11:39:24;;;;;;;11.67;10.87;;;20.60;1.00;;;;;;5015649;28;20461;-61
2022/06/05 11:42:06;;;;;;;11.73;10.93;;;20.90;1.00;;;;;;5017019;28;20497;-61
2022/06/05 11:44:38;;;;;;;11.43;10.63;;;21.20;1.00;;;;;;5016975;28;20483;-60
2022/06/05 11:47:08;;;;;;;11.77;10.77;;;21.70;1.00;;;;;;5015939;28;20497;-61
2022/06/05 11:49:53;;;;;;;9.60;8.93;;;22.50;1.00;;;;;;5018131;28;20464;-62
2022/06/05 11:52:26;;;;;;;11.07;10.30;;;23.20;1.00;;;;;;5016044;28;20460;-62
2022/06/05 11:55:01;;;;;;;10.27;9.57;;;23.70;1.00;;;;;;5016875;28;21739;-62
2022/06/05 11:57:36;;;;;;;10.17;9.47;;;23.60;1.00;;;;;;5017656;28;20464;-62
2022/06/05 12:00:14;;;;;;;10.43;9.73;;;23.40;99.90;;;;;;5015257;28;20518;-63
2022/06/05 12:03:00;;;;;;;10.53;9.73;;;23.60;1.00;;;;;;5015083;28;20478;-63
2022/06/05 12:05:37;;;;;;;10.40;9.60;;;24.10;1.00;;;;;;5016280;28;20526;-64
2022/06/05 12:08:11;;;;;;;9.77;8.93;;;24.90;99.90;;;;;;5017282;28;20498;-65
2022/06/05 12:10:51;;;;;;;9.20;8.60;;;25.60;99.90;;;;;;5014356;28;20471;-65
2022/06/05 12:13:44;;;;;;;9.17;8.47;;;25.90;99.90;;;;;;5016834;28;20523;-64
2022/06/05 12:16:28;;;;;;;8.83;8.23;;;25.70;99.90;;;;;;4998212;28;20986;-64
2022/06/05 12:19:00;;;;;;;10.20;9.37;;;25.40;99.90;;;;;;5037266;28;20459;-64
2022/06/05 12:21:40;;;;;;;9.10;8.50;;;25.20;99.90;;;;;;5024625;28;20550;-63
2022/06/05 12:24:15;;;;;;;9.90;9.23;;;25.30;99.90;;;;;;5031083;28;20521;-64
2022/06/05 12:26:52;;;;;;;8.73;8.03;;;25.20;99.90;;;;;;4997824;28;20554;-64
2022/06/05 12:29:32;;;;;;;9.50;8.90;;;25.20;99.90;;;;;;4998506;28;20508;-64
2022/06/05 12:32:09;;;;;;;8.80;8.20;;;25.00;99.90;;;;;;5008645;28;20468;-63
2022/06/05 12:34:45;;;;;;;9.70;8.43;;;24.80;99.90;;;;;;5017584;28;20549;-63
2022/06/05 12:37:20;;;;;;;8.17;7.67;;;24.70;99.90;;;;;;5037711;28;20462;-63
2022/06/05 12:39:58;;;;;;;8.60;7.87;;;24.50;99.90;;;;;;5037961;28;20463;-65
2022/06/05 12:42:35;;;;;;;8.60;8.00;;;24.20;99.90;;;;;;5024072;28;20475;-63
2022/06/05 12:45:16;;;;;;;8.90;8.40;;;24.20;99.90;;;;;;5015881;28;20459;-63
2022/06/05 12:48:07;;;;;;;8.83;8.23;;;24.20;99.90;;;;;;5025591;28;20495;-63
2022/06/05 12:50:52;;;;;;;9.17;8.57;;;24.00;99.90;;;;;;5037671;28;20826;-62
2022/06/05 12:53:32;;;;;;;9.37;8.40;;;23.90;99.90;;;;;;5020662;28;20472;-62
2022/06/05 12:56:16;;;;;;;9.37;8.77;;;23.70;99.90;;;;;;5022594;28;20533;-63
2022/06/05 12:59:02;;;;;;;9.00;8.30;;;23.50;99.90;;;;;;5038019;28;20738;-62
2022/06/05 13:01:34;;;;;;;8.90;8.30;;;23.20;99.90;;;;;;5019859;28;20471;-63
2022/06/05 13:04:06;;;;;;;10.47;9.67;;;23.00;1.00;;;;;;5020472;28;20470;-62
2022/06/05 13:06:52;;;;;;;9.63;8.93;;;22.90;1.00;;;;;;5033608;28;20464;-68
2022/06/05 13:09:28;;;;;;;10.87;10.20;;;22.60;1.00;;;;;;5025317;28;20859;-66
2022/06/05 13:12:04;;;;;;;11.10;10.33;;;22.70;1.00;;;;;;5037188;28;20759;-67
2022/06/05 13:14:46;;;;;;;10.27;9.37;;;22.80;1.00;;;;;;5016532;28;20807;-65
2022/06/05 13:17:28;;;;;;;8.87;8.37;;;22.80;1.00;;;;;;5019454;28;20527;-65
2022/06/05 13:20:00;;;;;;;8.60;8.00;;;22.90;1.00;;;;;;5014744;28;20467;-64
2022/06/05 13:22:34;;;;;;;8.73;8.13;;;22.90;1.00;;;;;;5031630;28;20463;-64
2022/06/05 13:25:13;;;;;;;8.93;8.33;;;22.80;1.00;;;;;;5019140;28;20491;-63
2022/06/05 13:28:09;;;;;;;9.37;8.77;;;22.70;1.00;;;;;;5031056;28;20488;-64
2022/06/05 13:30:52;;;;;;;8.93;8.33;;;22.80;1.00;;;;;;5016287;28;20464;-63
2022/06/05 13:33:27;;;;;;;8.70;8.10;;;22.90;1.00;;;;;;5016394;28;20495;-62
2022/06/05 13:35:59;;;;;;;8.77;8.13;;;22.90;1.00;;;;;;5015203;28;20467;-63
2022/06/05 13:38:29;;;;;;;9.53;8.93;;;22.80;1.00;;;;;;5016101;28;20463;-63